createdAt,value
2022-09-17T00:01:33.535Z,65.70
2022-09-17T00:04:06.171Z,64.90
2022-09-17T00:06:36.144Z,63.60
2022-09-17T00:09:06.833Z,61.80
2022-09-17T00:11:37.948Z,62.70
2022-09-17T00:14:09.439Z,64.70
2022-09-17T00:16:46.855Z,65.90
2022-09-17T00:19:18.869Z,66.80
2022-09-17T00:21:50.325Z,68.10
2022-09-17T00:24:19.576Z,69.00
2022-09-17T00:26:48.911Z,69.70
2022-09-17T00:29:17.159Z,69.90
2022-09-17T00:31:45.649Z,71.10
2022-09-17T00:34:13.929Z,72.20
2022-09-17T00:36:42.025Z,73.50
2022-09-17T00:39:12.122Z,74.90
2022-09-17T00:41:40.720Z,76.10
2022-09-17T00:44:39.307Z,76.80
2022-09-17T00:47:19.646Z,77.80
2022-09-17T00:49:49.899Z,78.40
2022-09-17T00:52:33.097Z,79.10
2022-09-17T00:55:13.975Z,79.70
2022-09-17T00:57:42.780Z,80.50
2022-09-17T01:00:11.548Z,81.60
2022-09-17T01:02:39.964Z,82.30
2022-09-17T01:05:08.776Z,82.70
2022-09-17T01:08:01.925Z,83.00
2022-09-17T01:11:00.657Z,82.90
2022-09-17T01:14:06.909Z,82.80
2022-09-17T01:16:50.330Z,82.00
2022-09-17T01:19:51.820Z,81.60
2022-09-17T01:22:34.473Z,81.30
2022-09-17T01:25:08.351Z,80.70
2022-09-17T01:27:43.757Z,80.20
2022-09-17T01:30:46.974Z,79.40
2022-09-17T01:33:23.875Z,78.50
2022-09-17T01:35:55.655Z,77.50
2022-09-17T01:38:30.200Z,76.50
2022-09-17T01:41:14.678Z,75.80
2022-09-17T01:44:04.142Z,76.60
2022-09-17T01:46:36.838Z,77.40
2022-09-17T01:49:07.333Z,77.80
2022-09-17T01:51:41.575Z,77.90
2022-09-17T01:54:46.052Z,77.60
2022-09-17T01:57:34.251Z,77.40
2022-09-17T02:00:13.797Z,77.60
2022-09-17T02:02:52.922Z,78.30
2022-09-17T02:05:46.926Z,78.80
2022-09-17T02:08:19.408Z,78.80
2022-09-17T02:11:12.297Z,78.80
2022-09-17T02:13:45.999Z,78.50
2022-09-17T02:16:43.676Z,77.90
2022-09-17T02:19:21.399Z,77.50
2022-09-17T02:22:16.009Z,76.90
2022-09-17T02:24:48.152Z,76.50
2022-09-17T02:27:24.089Z,76.20
2022-09-17T02:29:53.365Z,76.10
2022-09-17T02:32:21.445Z,76.00
2022-09-17T02:34:49.805Z,75.20
2022-09-17T02:37:17.922Z,74.90
2022-09-17T02:39:46.030Z,74.70
2022-09-17T02:42:22.705Z,74.70
2022-09-17T02:45:12.635Z,74.70
2022-09-17T02:47:55.096Z,74.50
2022-09-17T02:50:43.177Z,74.40
2022-09-17T02:53:38.656Z,74.50
2022-09-17T02:56:41.547Z,74.50
2022-09-17T02:59:22.656Z,74.40
2022-09-17T03:02:18.673Z,74.20
2022-09-17T03:04:50.237Z,73.80
2022-09-17T03:07:20.277Z,73.00
2022-09-17T03:09:48.727Z,73.30
2022-09-17T03:12:17.613Z,73.60
2022-09-17T03:14:45.471Z,73.60
2022-09-17T03:17:15.367Z,73.10
2022-09-17T03:19:43.677Z,72.60
2022-09-17T03:22:13.030Z,72.60
2022-09-17T03:24:41.170Z,72.50
2022-09-17T03:27:09.355Z,72.50
2022-09-17T03:29:37.922Z,72.40
2022-09-17T03:32:06.290Z,72.20
2022-09-17T03:34:34.648Z,71.90
2022-09-17T03:37:03.097Z,70.60
2022-09-17T03:39:31.763Z,70.60
2022-09-17T03:41:59.865Z,70.20
2022-09-17T03:44:27.985Z,70.30
2022-09-17T03:46:55.967Z,69.60
2022-09-17T03:49:27.210Z,69.60
2022-09-17T03:51:55.586Z,69.70
2022-09-17T03:54:26.604Z,69.10
2022-09-17T03:56:54.761Z,68.60
2022-09-17T03:59:23.361Z,67.90
2022-09-17T04:01:51.581Z,67.80
2022-09-17T04:04:19.552Z,67.70
2022-09-17T04:06:47.680Z,67.50
2022-09-17T04:09:15.646Z,67.50
2022-09-17T04:11:46.677Z,67.20
2022-09-17T04:14:15.191Z,67.50
2022-09-17T04:16:46.066Z,68.10
2022-09-17T04:19:13.946Z,68.80
2022-09-17T04:21:41.856Z,67.30
2022-09-17T04:24:09.957Z,67.90
2022-09-17T04:26:38.071Z,68.40
2022-09-17T04:29:06.336Z,67.30
2022-09-17T04:31:34.509Z,67.50
2022-09-17T04:34:02.860Z,66.70
2022-09-17T04:36:30.865Z,67.50
2022-09-17T04:38:59.000Z,68.30
2022-09-17T04:41:26.989Z,67.70
2022-09-17T04:43:54.933Z,67.70
2022-09-17T04:46:22.920Z,67.10
2022-09-17T04:48:51.059Z,65.80
2022-09-17T04:51:19.030Z,64.50
2022-09-17T04:53:47.156Z,63.80
2022-09-17T04:56:15.281Z,62.60
2022-09-17T04:58:43.452Z,62.00
2022-09-17T05:01:11.418Z,61.90
2022-09-17T05:03:39.466Z,61.60
2022-09-17T05:06:07.656Z,61.30
2022-09-17T05:08:35.694Z,61.10
2022-09-17T05:11:06.662Z,61.10
2022-09-17T05:13:35.056Z,60.40
2022-09-17T05:16:03.264Z,60.00
2022-09-17T05:18:31.934Z,60.50
2022-09-17T05:21:02.603Z,61.40
2022-09-17T05:23:30.746Z,62.00
2022-09-17T05:26:03.118Z,62.50
2022-09-17T05:28:31.283Z,63.00
2022-09-17T05:31:01.304Z,62.70
2022-09-17T05:33:29.856Z,63.70
2022-09-17T05:35:57.960Z,64.40
2022-09-17T05:38:26.081Z,65.70
2022-09-17T05:40:54.828Z,66.10
2022-09-17T05:43:22.860Z,66.50
2022-09-17T05:45:51.169Z,66.80
2022-09-17T05:48:19.521Z,68.00
2022-09-17T05:50:47.590Z,68.60
2022-09-17T05:53:15.698Z,68.70
2022-09-17T05:55:44.007Z,69.10
2022-09-17T05:58:15.511Z,69.70
2022-09-17T06:00:46.757Z,69.30
2022-09-17T06:03:18.311Z,69.60
2022-09-17T06:05:55.501Z,70.50
2022-09-17T06:08:24.568Z,70.20
2022-09-17T06:10:52.633Z,69.40
2022-09-17T06:13:21.676Z,68.10
2022-09-17T06:15:54.436Z,68.80
2022-09-17T06:18:22.718Z,70.10
2022-09-17T06:20:59.341Z,68.90
2022-09-17T06:23:28.390Z,68.40
2022-09-17T06:25:58.966Z,69.10
2022-09-17T06:28:28.079Z,69.10
2022-09-17T06:31:02.183Z,68.60
2022-09-17T06:33:32.391Z,67.30
2022-09-17T06:36:13.365Z,66.40
2022-09-17T06:38:43.108Z,66.00
2022-09-17T06:41:11.763Z,64.10
2022-09-17T06:43:39.638Z,63.00
2022-09-17T06:46:09.657Z,62.80
2022-09-17T06:48:40.978Z,62.50
2022-09-17T06:51:11.331Z,63.20
2022-09-17T06:53:40.470Z,63.60
2022-09-17T06:56:09.804Z,63.30
2022-09-17T06:58:38.425Z,62.80
2022-09-17T07:01:08.175Z,63.40
2022-09-17T07:03:36.727Z,62.80
2022-09-17T07:06:09.802Z,63.30
2022-09-17T07:08:38.782Z,63.70
2022-09-17T07:11:07.102Z,64.10
2022-09-17T07:13:35.773Z,63.70
2022-09-17T07:16:05.585Z,62.80
2022-09-17T07:18:34.127Z,62.20
2022-09-17T07:21:04.920Z,61.30
2022-09-17T07:23:35.412Z,60.60
2022-09-17T07:26:07.099Z,60.90
2022-09-17T07:28:35.874Z,61.10
2022-09-17T07:31:06.854Z,61.70
2022-09-17T07:33:37.125Z,62.40
2022-09-17T07:36:07.926Z,62.90
2022-09-17T07:38:36.087Z,63.00
2022-09-17T07:41:14.562Z,62.00
2022-09-17T07:43:43.666Z,62.90
2022-09-17T07:46:19.544Z,63.40
2022-09-17T07:48:49.088Z,63.20
2022-09-17T07:51:25.576Z,61.70
2022-09-17T07:53:56.308Z,60.40
2022-09-17T07:56:25.926Z,60.00
2022-09-17T07:58:54.075Z,60.70
2022-09-17T08:01:23.226Z,60.60
2022-09-17T08:03:53.197Z,60.40
2022-09-17T08:06:28.520Z,59.80
2022-09-17T08:08:58.505Z,60.00
2022-09-17T08:14:19.636Z,60.10
2022-09-17T08:16:47.830Z,58.90
2022-09-17T08:19:16.084Z,58.90
2022-09-17T08:21:44.196Z,58.70
2022-09-17T08:24:12.291Z,57.80
2022-09-17T08:26:41.745Z,57.50
2022-09-17T08:29:11.829Z,57.90
2022-09-17T08:31:40.257Z,55.70
2022-09-17T08:34:10.200Z,54.80
2022-09-17T08:36:39.030Z,53.00
2022-09-17T08:39:07.146Z,53.70
2022-09-17T08:42:02.900Z,52.70
2022-09-17T08:44:44.081Z,52.30
2022-09-17T08:47:20.230Z,51.10
2022-09-17T08:49:59.890Z,51.00
2022-09-17T08:53:02.964Z,50.60
2022-09-17T08:55:34.481Z,51.20
2022-09-17T08:58:27.960Z,49.80
2022-09-17T09:01:16.922Z,47.60
2022-09-17T09:03:45.021Z,48.80
2022-09-17T09:06:16.183Z,48.40
2022-09-17T09:09:10.246Z,47.10
2022-09-17T09:11:40.692Z,46.50
2022-09-17T09:14:41.069Z,45.80
2022-09-17T09:17:11.603Z,46.50
2022-09-17T09:19:47.342Z,46.50
2022-09-17T09:22:56.856Z,46.40
2022-09-17T09:25:27.636Z,46.20
2022-09-17T09:28:24.260Z,45.60
2022-09-17T09:31:20.900Z,46.00
2022-09-17T09:33:51.232Z,46.10
2022-09-17T09:36:22.293Z,44.40
2022-09-17T09:39:02.469Z,43.50
2022-09-17T09:41:48.123Z,44.00
2022-09-17T09:44:17.375Z,44.10
2022-09-17T09:47:02.395Z,43.40
2022-09-17T09:49:44.609Z,43.80
2022-09-17T09:52:23.829Z,43.20
2022-09-17T09:55:04.331Z,42.80
2022-09-17T09:57:43.791Z,42.90
2022-09-17T10:00:36.087Z,42.20
2022-09-17T10:03:24.123Z,41.20
2022-09-17T10:05:59.214Z,42.00
2022-09-17T10:08:28.860Z,41.50
2022-09-17T10:11:07.604Z,42.20
2022-09-17T10:13:37.912Z,41.80
2022-09-17T10:16:26.703Z,41.60
2022-09-17T10:19:06.968Z,41.70
2022-09-17T10:21:39.895Z,41.40
2022-09-17T10:24:24.777Z,41.10
2022-09-17T10:26:54.227Z,41.10
2022-09-17T10:29:22.741Z,41.40
2022-09-17T10:31:54.174Z,40.60
2022-09-17T10:34:26.356Z,40.10
2022-09-17T10:36:59.046Z,39.30
2022-09-17T10:39:46.966Z,38.40
2022-09-17T10:42:17.047Z,38.40
2022-09-17T10:44:57.163Z,37.10
2022-09-17T10:47:37.574Z,37.80
2022-09-17T10:50:30.319Z,36.80
2022-09-17T10:53:06.579Z,37.80
2022-09-17T10:55:58.993Z,38.20
2022-09-17T10:58:30.074Z,37.80
2022-09-17T11:01:16.310Z,37.30
2022-09-17T11:04:13.591Z,38.10
2022-09-17T11:07:11.828Z,37.80
2022-09-17T11:10:31.829Z,38.50
2022-09-17T11:13:18.982Z,38.40
2022-09-17T11:16:05.616Z,38.10
2022-09-17T11:19:01.222Z,38.20
2022-09-17T11:21:29.387Z,37.50
2022-09-17T11:24:15.212Z,37.40
2022-09-17T11:27:01.014Z,36.00
2022-09-17T11:29:46.929Z,37.10
2022-09-17T11:32:52.305Z,39.20
2022-09-17T11:35:46.941Z,40.30
2022-09-17T11:38:27.659Z,39.30
2022-09-17T11:41:15.198Z,38.50
2022-09-17T11:44:12.557Z,38.10
2022-09-17T11:46:44.370Z,38.50
2022-09-17T11:49:35.886Z,39.80
2022-09-17T11:52:14.127Z,40.20
2022-09-17T11:54:51.715Z,39.30
2022-09-17T11:57:23.201Z,38.00
2022-09-17T12:00:14.252Z,37.00
2022-09-17T12:03:12.877Z,37.40
2022-09-17T12:05:55.683Z,38.20
2022-09-17T12:08:28.671Z,37.50
2022-09-17T12:11:12.602Z,38.60
2022-09-17T12:13:51.854Z,38.20
2022-09-17T12:16:27.284Z,37.80
2022-09-17T12:19:18.867Z,37.60
2022-09-17T12:21:57.421Z,36.80
2022-09-17T12:24:37.506Z,36.10
2022-09-17T12:27:33.285Z,36.00
2022-09-17T12:30:11.194Z,35.90
2022-09-17T12:33:04.076Z,36.40
2022-09-17T12:36:05.527Z,36.30
2022-09-17T12:38:40.587Z,36.70
2022-09-17T12:41:50.619Z,36.70
2022-09-17T12:44:43.494Z,36.30
2022-09-17T12:47:11.844Z,36.40
2022-09-17T12:49:57.293Z,36.50
2022-09-17T12:52:54.352Z,38.30
2022-09-17T12:55:42.695Z,38.30
2022-09-17T12:58:25.569Z,38.00
2022-09-17T13:01:03.455Z,38.30
2022-09-17T13:03:41.166Z,38.10
2022-09-17T13:06:43.111Z,38.20
2022-09-17T13:09:38.653Z,38.50
2022-09-17T13:12:21.115Z,38.30
2022-09-17T13:14:55.838Z,37.70
2022-09-17T13:17:28.156Z,37.20
2022-09-17T13:20:17.550Z,37.80
2022-09-17T13:22:57.578Z,38.40
2022-09-17T13:25:27.731Z,39.00
2022-09-17T13:28:08.930Z,40.20
2022-09-17T13:31:00.884Z,39.80
2022-09-17T13:33:55.462Z,41.80
2022-09-17T13:36:40.998Z,42.40
2022-09-17T13:39:31.141Z,43.50
2022-09-17T13:42:14.899Z,43.20
2022-09-17T13:44:52.624Z,43.60
2022-09-17T13:47:23.290Z,45.30
2022-09-17T13:50:00.666Z,46.40
2022-09-17T13:52:47.323Z,46.90
2022-09-17T13:55:43.286Z,47.00
2022-09-17T13:58:22.784Z,47.20
2022-09-17T14:00:55.068Z,45.20
2022-09-17T14:03:33.996Z,47.50
2022-09-17T14:06:45.296Z,46.80
2022-09-17T14:09:47.008Z,46.20
2022-09-17T14:12:44.976Z,47.10
2022-09-17T14:15:40.058Z,48.90
2022-09-17T14:18:29.839Z,50.60
2022-09-17T14:21:19.617Z,51.90
2022-09-17T14:23:55.514Z,53.50
2022-09-17T14:26:58.938Z,54.40
2022-09-17T14:29:37.582Z,55.10
2022-09-17T14:32:11.861Z,55.90
2022-09-17T14:34:40.216Z,56.80
2022-09-17T14:37:14.172Z,57.50
2022-09-17T14:39:42.420Z,58.30
2022-09-17T14:42:36.293Z,57.60
2022-09-17T14:45:37.232Z,55.10
2022-09-17T14:48:34.266Z,53.00
2022-09-17T14:51:22.676Z,51.80
2022-09-17T14:54:15.297Z,50.40
2022-09-17T14:57:03.939Z,50.60
2022-09-17T14:59:56.966Z,50.50
2022-09-17T15:02:45.390Z,50.80
2022-09-17T15:05:30.746Z,50.60
2022-09-17T15:08:10.325Z,50.30
2022-09-17T15:11:11.212Z,51.40
2022-09-17T15:14:01.021Z,51.70
2022-09-17T15:16:35.124Z,52.00
2022-09-17T15:19:04.189Z,51.90
2022-09-17T15:21:38.655Z,52.20
2022-09-17T15:24:18.600Z,52.00
2022-09-17T15:26:52.497Z,50.90
2022-09-17T15:29:29.101Z,47.80
2022-09-17T15:31:57.230Z,48.20
2022-09-17T15:34:25.063Z,48.10
2022-09-17T15:37:19.110Z,48.50
2022-09-17T15:39:51.908Z,47.90
2022-09-17T15:42:31.761Z,48.10
2022-09-17T15:45:22.856Z,47.80
2022-09-17T15:47:53.378Z,47.60
2022-09-17T15:50:30.739Z,47.60
2022-09-17T15:53:13.105Z,48.00
2022-09-17T15:55:45.020Z,47.50
2022-09-17T15:58:37.596Z,47.10
2022-09-17T16:01:17.866Z,45.80
2022-09-17T16:03:46.144Z,44.20
2022-09-17T16:06:23.065Z,43.90
2022-09-17T16:08:53.263Z,43.80
2022-09-17T16:11:24.049Z,44.40
2022-09-17T16:13:54.171Z,43.90
2022-09-17T16:16:34.537Z,44.30
2022-09-17T16:19:02.988Z,44.60
2022-09-17T16:21:31.723Z,45.70
2022-09-17T16:23:59.946Z,46.70
2022-09-17T16:26:33.222Z,47.40
2022-09-17T16:29:18.336Z,48.40
2022-09-17T16:31:46.474Z,48.20
2022-09-17T16:34:14.407Z,48.90
2022-09-17T16:36:42.417Z,49.10
2022-09-17T16:39:10.449Z,50.20
2022-09-17T16:41:38.440Z,50.20
2022-09-17T16:44:06.272Z,50.50
2022-09-17T16:46:34.236Z,50.70
2022-09-17T16:49:02.487Z,51.00
2022-09-17T16:51:30.597Z,51.60
2022-09-17T16:53:58.588Z,51.50
2022-09-17T16:56:26.545Z,51.70
2022-09-17T16:58:57.175Z,51.60
2022-09-17T17:01:25.154Z,51.90
2022-09-17T17:03:54.791Z,52.10
2022-09-17T17:06:23.258Z,52.40
2022-09-17T17:08:52.346Z,52.40
2022-09-17T17:11:20.296Z,52.60
2022-09-17T17:13:48.408Z,52.40
2022-09-17T17:16:16.996Z,52.50
2022-09-17T17:18:45.647Z,52.40
2022-09-17T17:21:15.294Z,52.60
2022-09-17T17:23:48.255Z,52.90
2022-09-17T17:26:17.450Z,53.30
2022-09-17T17:28:45.633Z,53.70
2022-09-17T17:31:14.735Z,54.30
2022-09-17T17:33:42.822Z,53.60
2022-09-17T17:36:11.864Z,54.00
2022-09-17T17:38:39.967Z,54.00
2022-09-17T17:41:13.672Z,54.30
2022-09-17T17:43:42.472Z,54.40
2022-09-17T17:46:12.184Z,55.00
2022-09-17T17:48:40.293Z,54.70
2022-09-17T17:51:10.232Z,54.70
2022-09-17T17:53:41.738Z,54.80
2022-09-17T17:56:11.615Z,54.90
2022-09-17T17:58:40.802Z,54.90
2022-09-17T18:01:28.698Z,55.00
2022-09-17T18:04:05.618Z,54.70
2022-09-17T18:06:33.930Z,54.60
2022-09-17T18:09:02.630Z,54.70
2022-09-17T18:11:31.136Z,54.80
2022-09-17T18:14:01.447Z,55.30
2022-09-17T18:16:30.283Z,54.90
2022-09-17T18:18:58.870Z,54.90
2022-09-17T18:21:27.595Z,55.20
2022-09-17T18:23:55.613Z,55.60
2022-09-17T18:26:26.734Z,56.00
2022-09-17T18:28:55.164Z,55.30
2022-09-17T18:31:30.502Z,55.10
2022-09-17T18:34:01.320Z,54.70
2022-09-17T18:36:32.787Z,55.10
2022-09-17T18:39:32.813Z,55.10
2022-09-17T18:41:51.458Z,55.40
2022-09-17T18:44:22.212Z,55.20
2022-09-17T18:46:51.589Z,55.10
2022-09-17T18:49:19.776Z,55.30
2022-09-17T18:51:47.783Z,55.70
2022-09-17T18:54:15.821Z,55.40
2022-09-17T18:56:43.946Z,55.20
2022-09-17T18:59:12.271Z,55.20
2022-09-17T19:01:40.654Z,55.70
2022-09-17T19:04:08.789Z,55.60
2022-09-17T19:06:37.191Z,55.30
2022-09-17T19:09:06.718Z,55.50
2022-09-17T19:11:37.394Z,55.70
2022-09-17T19:14:05.636Z,55.90
2022-09-17T19:16:33.658Z,56.10
2022-09-17T19:19:01.880Z,55.60
2022-09-17T19:21:29.991Z,55.70
2022-09-17T19:23:58.235Z,55.90
2022-09-17T19:26:27.893Z,55.80
2022-09-17T19:29:03.605Z,56.10
2022-09-17T19:31:32.821Z,56.20
2022-09-17T19:34:01.404Z,56.40
2022-09-17T19:36:29.885Z,56.30
2022-09-17T19:38:59.361Z,56.00
2022-09-17T19:41:27.643Z,56.10
2022-09-17T19:43:58.180Z,55.80
2022-09-17T19:46:27.509Z,55.60
2022-09-17T19:48:57.686Z,55.20
2022-09-17T19:51:28.927Z,55.40
2022-09-17T19:53:57.916Z,56.00
2022-09-17T19:56:27.576Z,56.30
2022-09-17T19:58:57.119Z,55.90
2022-09-17T20:01:25.607Z,56.00
2022-09-17T20:03:53.933Z,56.20
2022-09-17T20:06:23.837Z,56.30
2022-09-17T20:08:54.764Z,55.10
2022-09-17T20:11:25.120Z,54.80
2022-09-17T20:14:06.745Z,54.80
2022-09-17T20:16:36.865Z,54.90
2022-09-17T20:19:07.335Z,55.10
2022-09-17T20:21:35.555Z,55.30
2022-09-17T20:24:06.077Z,56.20
2022-09-17T20:26:35.244Z,56.60
2022-09-17T20:29:03.695Z,57.30
2022-09-17T20:31:33.819Z,57.60
2022-09-17T20:34:03.052Z,57.90
2022-09-17T20:36:33.982Z,58.40
2022-09-17T20:39:22.306Z,58.70
2022-09-17T20:41:50.213Z,59.00
2022-09-17T20:44:18.350Z,59.70
2022-09-17T20:46:46.450Z,60.40
2022-09-17T20:49:14.578Z,61.10
2022-09-17T20:51:43.859Z,61.50
2022-09-17T20:54:12.255Z,62.10
2022-09-17T20:56:40.771Z,62.70
2022-09-17T20:59:15.721Z,63.10
2022-09-17T21:01:49.939Z,63.50
2022-09-17T21:04:20.375Z,63.50
2022-09-17T21:06:52.283Z,63.80
2022-09-17T21:09:20.783Z,63.80
2022-09-17T21:11:49.657Z,63.70
2022-09-17T21:14:18.836Z,63.60
2022-09-17T21:16:47.120Z,63.80
2022-09-17T21:19:16.927Z,63.80
2022-09-17T21:21:45.737Z,64.00
2022-09-17T21:24:14.012Z,64.20
2022-09-17T21:26:42.141Z,64.40
2022-09-17T21:29:10.534Z,64.60
2022-09-17T21:31:39.921Z,64.50
2022-09-17T21:34:11.522Z,65.00
2022-09-17T21:36:41.645Z,65.10
2022-09-17T21:39:15.646Z,65.30
2022-09-17T21:41:45.365Z,65.40
2022-09-17T21:44:14.023Z,65.10
2022-09-17T21:46:43.860Z,65.40
2022-09-17T21:49:13.948Z,65.50
2022-09-17T21:51:43.151Z,65.30
2022-09-17T21:54:17.563Z,65.40
2022-09-17T21:56:46.971Z,65.50
2022-09-17T21:59:16.632Z,65.60
2022-09-17T22:01:51.250Z,65.70
2022-09-17T22:04:21.627Z,65.60
2022-09-17T22:06:50.755Z,65.70
2022-09-17T22:09:24.710Z,66.00
2022-09-17T22:11:53.995Z,66.10
2022-09-17T22:14:24.309Z,66.10
2022-09-17T22:16:56.057Z,66.30
2022-09-17T22:19:26.546Z,65.80
2022-09-17T22:21:56.308Z,65.70
2022-09-17T22:24:25.064Z,65.80
2022-09-17T22:26:57.938Z,65.80
2022-09-17T22:29:34.000Z,66.10
2022-09-17T22:32:02.279Z,66.50
2022-09-17T22:34:30.385Z,66.60
2022-09-17T22:36:59.738Z,66.70
2022-09-17T22:39:27.961Z,66.90
2022-09-17T22:41:57.553Z,67.20
2022-09-17T22:44:25.592Z,67.30
2022-09-17T22:46:53.688Z,67.30
2022-09-17T22:49:24.516Z,67.40
2022-09-17T22:51:53.043Z,67.10
2022-09-17T22:54:21.198Z,67.30
2022-09-17T22:56:49.901Z,67.10
2022-09-17T22:59:18.605Z,67.30
2022-09-17T23:01:47.088Z,67.20
2022-09-17T23:04:15.392Z,66.90
2022-09-17T23:06:43.572Z,66.80
2022-09-17T23:09:13.720Z,66.80
2022-09-17T23:11:42.325Z,67.20
2022-09-17T23:14:12.886Z,67.50
2022-09-17T23:16:48.911Z,67.80
2022-09-17T23:19:18.960Z,68.20
2022-09-17T23:21:47.806Z,69.50
2022-09-17T23:24:21.212Z,69.80
2022-09-17T23:26:50.482Z,70.20
2022-09-17T23:29:19.196Z,70.80
2022-09-17T23:31:47.845Z,71.20
2022-09-17T23:34:15.981Z,72.00
2022-09-17T23:36:44.506Z,72.50
2022-09-17T23:39:12.942Z,72.70
2022-09-17T23:41:45.116Z,73.30
2022-09-17T23:44:16.105Z,73.80
2022-09-17T23:46:46.060Z,74.10
2022-09-17T23:49:15.322Z,74.10
2022-09-17T23:51:44.117Z,74.10
2022-09-17T23:54:12.328Z,74.20
2022-09-17T23:56:40.899Z,74.30
2022-09-17T23:59:10.754Z,74.00
